Vilagarcia de Arousa, Spain
Current Conditions -  °F | °C
As of 5:00 PM on Friday 31 Oct 2014 (Local Time) from LEVX Reporting Station
Scattered Clouds Scattered Clouds  
Wind Chill: 68°   Ceiling: Unl
Heat Index: 68°   Visibility: 6mi
Dew Point: 61°   Wind: 10mph
Humidity: 78%   Direction: 190°S
Pressure: 30.09"   Gusts: NA
Location:  42.6°N, 8.76°W
Report Text: LEVX 311600Z 19009KT 140V230 9999 FEW025 SCT048 20/16 Q1019 TEMPO 3000 -RA
Loading
Personal Weather Stations






























Interactive Weather Map
Tropical Storm Tracking
New forecast layout! Learn more

10-Day Weather Forecast

Advertisements
Track Severe Weather on mobile